Time;durP1;ratioP1;P1;durP2;ratioP2;P2;SDS_P1;SDS_P2;PMS_P1;PMS_P2;Temp;Humidity;BMP_temperature;BMP_pressure;BME280_temperature;BME280_humidity;BME280_pressure;Samples;Min_cycle;Max_cycle;Signal;HPM_P1;HPM_P2
2023/12/13 00:00:50;;;;;;;4.20;1.20;;;7.80;99.90;;;;;;4990888;28;20038;-64
2023/12/13 00:03:15;;;;;;;3.33;1.20;;;7.80;99.90;;;;;;4996853;28;20110;-64
2023/12/13 00:05:41;;;;;;;5.55;1.30;;;7.80;99.90;;;;;;4999526;28;20109;-64
2023/12/13 00:08:07;;;;;;;5.40;1.40;;;7.80;99.90;;;;;;4979938;28;20030;-64
2023/12/13 00:10:32;;;;;;;6.05;1.70;;;7.80;99.90;;;;;;5000029;28;20026;-64
2023/12/13 00:13:02;;;;;;;4.90;1.70;;;7.80;99.90;;;;;;4977713;28;20760;-64
2023/12/13 00:15:27;;;;;;;5.20;2.00;;;7.80;99.90;;;;;;4998968;28;20026;-64
2023/12/13 00:17:53;;;;;;;5.00;1.50;;;7.80;99.90;;;;;;5001099;28;20088;-64
2023/12/13 00:20:19;;;;;;;7.45;1.92;;;7.80;99.90;;;;;;4998761;28;20421;-64
2023/12/13 00:22:44;;;;;;;6.45;1.65;;;7.70;99.90;;;;;;4997845;28;20125;-64
2023/12/13 00:25:10;;;;;;;7.10;1.48;;;7.80;99.90;;;;;;4999214;28;20026;-64
2023/12/13 00:27:36;;;;;;;5.68;1.70;;;7.90;99.90;;;;;;4995001;28;20073;-64
2023/12/13 00:30:01;;;;;;;4.63;1.80;;;7.80;99.90;;;;;;4998272;28;20022;-64
2023/12/13 00:32:27;;;;;;;4.70;1.60;;;7.80;99.90;;;;;;4980757;28;20117;-64
2023/12/13 00:34:53;;;;;;;6.53;1.77;;;7.80;99.90;;;;;;4998485;28;20029;-64
2023/12/13 00:37:19;;;;;;;7.07;1.60;;;7.80;99.90;;;;;;4998792;28;20504;-64
2023/12/13 00:39:44;;;;;;;6.68;1.83;;;7.80;99.90;;;;;;4998884;28;20101;-64
2023/12/13 00:42:12;;;;;;;7.13;1.88;;;7.80;99.90;;;;;;4998755;28;20470;-64
2023/12/13 00:44:40;;;;;;;8.30;2.40;;;7.80;99.90;;;;;;4996278;28;20033;-64
2023/12/13 00:47:08;;;;;;;5.80;2.25;;;;;;;;;;4999849;28;20105;-64
2023/12/13 00:49:34;;;;;;;8.50;2.28;;;7.60;99.90;;;;;;4978645;28;20113;-64
2023/12/13 00:52:00;;;;;;;10.85;2.63;;;7.60;99.90;;;;;;4996949;28;20473;-64
2023/12/13 00:54:26;;;;;;;9.02;2.50;;;7.50;99.90;;;;;;4999606;28;20080;-64
2023/12/13 00:56:51;;;;;;;8.48;2.75;;;7.50;99.90;;;;;;4997023;28;20034;-64
2023/12/13 00:59:17;;;;;;;10.77;2.83;;;7.50;99.90;;;;;;4983424;28;20018;-64
2023/12/13 01:01:47;;;;;;;8.75;2.97;;;7.40;99.90;;;;;;4999647;28;20104;-64
2023/12/13 01:04:12;;;;;;;11.70;3.15;;;7.40;99.90;;;;;;4996915;28;20023;-64
2023/12/13 01:06:38;;;;;;;9.40;3.05;;;7.40;99.90;;;;;;5000228;28;20103;-64
2023/12/13 01:09:06;;;;;;;9.10;3.00;;;7.40;99.90;;;;;;4996106;28;20485;-64
2023/12/13 01:11:34;;;;;;;7.47;2.78;;;7.40;99.90;;;;;;4996331;28;20029;-65
2023/12/13 01:14:00;;;;;;;7.43;2.38;;;7.40;99.90;;;;;;4980483;28;20027;-65
2023/12/13 01:16:27;;;;;;;12.82;2.95;;;7.40;99.90;;;;;;5003827;28;20543;-65
2023/12/13 01:18:52;;;;;;;10.40;2.47;;;7.40;99.90;;;;;;5002566;28;20080;-65
2023/12/13 01:21:18;;;;;;;9.45;2.38;;;7.40;99.90;;;;;;5000531;28;20047;-65
2023/12/13 01:23:43;;;;;;;14.05;2.97;;;7.30;99.90;;;;;;5003322;28;20029;-65
2023/12/13 01:26:09;;;;;;;8.65;2.30;;;7.30;99.90;;;;;;5000101;28;20543;-65
2023/12/13 01:28:35;;;;;;;9.05;1.92;;;7.30;99.90;;;;;;4999975;28;20080;-65
2023/12/13 01:31:06;;;;;;;15.63;1.90;;;7.30;99.90;;;;;;5002208;28;20457;-65
2023/12/13 01:33:34;;;;;;;8.55;2.30;;;7.30;99.90;;;;;;5001464;28;20022;-65
2023/12/13 01:36:03;;;;;;;8.48;2.03;;;7.30;99.90;;;;;;5001520;28;20092;-65
2023/12/13 01:38:31;;;;;;;8.57;2.05;;;7.20;99.90;;;;;;5002167;28;20498;-64
2023/12/13 01:40:57;;;;;;;9.18;2.60;;;7.20;99.90;;;;;;4999978;28;20034;-64
2023/12/13 01:43:23;;;;;;;7.15;2.38;;;7.10;99.90;;;;;;5000003;28;20367;-64
2023/12/13 01:45:52;;;;;;;10.90;2.47;;;7.10;99.90;;;;;;5001157;28;20034;-64
2023/12/13 01:48:18;;;;;;;10.23;2.42;;;7.10;99.90;;;;;;5000520;28;20578;-64
2023/12/13 01:50:44;;;;;;;7.97;2.50;;;7.10;99.90;;;;;;5002626;28;20030;-65
2023/12/13 01:53:11;;;;;;;7.43;2.65;;;7.10;99.90;;;;;;4981646;28;20027;-64
2023/12/13 01:55:37;;;;;;;7.68;3.00;;;7.10;99.90;;;;;;5002960;28;20034;-64
2023/12/13 01:58:04;;;;;;;9.20;3.05;;;7.10;99.90;;;;;;5001509;28;20029;-64
2023/12/13 02:00:32;;;;;;;9.32;2.58;;;7.10;99.90;;;;;;4981533;28;20034;-64
2023/12/13 02:02:58;;;;;;;10.88;4.00;;;7.10;99.90;;;;;;5002008;28;20034;-64
2023/12/13 02:05:28;;;;;;;8.70;2.83;;;7.10;99.90;;;;;;4999282;28;20050;-64
2023/12/13 02:07:54;;;;;;;9.85;2.83;;;7.20;99.90;;;;;;5002513;28;20030;-64
2023/12/13 02:10:20;;;;;;;12.80;3.20;;;7.20;99.90;;;;;;5002087;28;20408;-64
2023/12/13 02:12:47;;;;;;;9.18;3.20;;;7.30;99.90;;;;;;4998376;28;20025;-64
2023/12/13 02:15:18;;;;;;;14.35;3.22;;;7.30;99.90;;;;;;5000673;28;20022;-64
2023/12/13 02:17:53;;;;;;;9.18;3.30;;;7.30;99.90;;;;;;5002864;28;20034;-64
2023/12/13 02:20:22;;;;;;;11.93;3.50;;;7.30;99.90;;;;;;4999448;28;20042;-64
2023/12/13 02:22:47;;;;;;;13.23;4.53;;;7.40;99.90;;;;;;5002110;28;20026;-64
2023/12/13 02:25:54;;;;;;;9.82;3.13;;;7.40;99.90;;;;;;4980863;28;20033;-64
2023/12/13 02:28:22;;;;;;;7.70;2.70;;;7.30;99.90;;;;;;4985849;28;20049;-64
2023/12/13 02:30:50;;;;;;;14.38;2.90;;;7.30;99.90;;;;;;5000118;28;20572;-64
2023/12/13 02:33:16;;;;;;;8.70;3.00;;;7.30;99.90;;;;;;5002313;28;20030;-64
2023/12/13 02:35:41;;;;;;;14.32;3.25;;;7.40;99.90;;;;;;5000264;28;20033;-64
2023/12/13 02:38:07;;;;;;;12.13;3.53;;;7.40;99.90;;;;;;5000202;28;20034;-64
2023/12/13 02:40:32;;;;;;;11.20;2.97;;;7.40;99.90;;;;;;4999206;28;20034;-64
2023/12/13 02:42:58;;;;;;;9.32;3.40;;;7.40;99.90;;;;;;4998237;28;20113;-64
2023/12/13 02:45:24;;;;;;;9.73;3.05;;;7.40;99.90;;;;;;5002140;28;20026;-64
2023/12/13 02:47:52;;;;;;;11.10;3.10;;;7.40;99.90;;;;;;5000552;28;20026;-64
2023/12/13 02:50:18;;;;;;;11.20;3.08;;;7.40;99.90;;;;;;5000525;28;20026;-64
2023/12/13 02:52:44;;;;;;;10.73;3.17;;;7.40;99.90;;;;;;4999811;28;20105;-64
2023/12/13 02:55:09;;;;;;;9.70;3.00;;;7.40;99.90;;;;;;5000110;28;20030;-64
2023/12/13 02:57:35;;;;;;;8.88;2.90;;;7.40;99.90;;;;;;4999296;28;20450;-65
2023/12/13 03:00:03;;;;;;;9.13;2.53;;;7.40;99.90;;;;;;5000039;28;20059;-64
2023/12/13 03:02:29;;;;;;;9.80;2.67;;;7.40;99.90;;;;;;4998642;28;20080;-64
2023/12/13 03:04:54;;;;;;;11.93;3.10;;;7.40;99.90;;;;;;4981195;28;20433;-64
2023/12/13 03:07:21;;;;;;;15.50;3.70;;;7.40;99.90;;;;;;5001053;28;20033;-64
2023/12/13 03:09:49;;;;;;;10.98;3.13;;;7.50;99.90;;;;;;4998555;28;20073;-64
2023/12/13 03:12:15;;;;;;;10.23;3.13;;;7.50;99.90;;;;;;4983367;28;20022;-64
2023/12/13 03:14:41;;;;;;;13.55;2.92;;;7.50;99.90;;;;;;4996441;28;20034;-64
2023/12/13 03:17:06;;;;;;;12.77;3.58;;;7.50;99.90;;;;;;5003598;28;20018;-65
2023/12/13 03:19:32;;;;;;;9.38;3.40;;;7.40;99.90;;;;;;4998450;28;20207;-64
2023/12/13 03:21:58;;;;;;;14.88;3.33;;;7.40;99.90;;;;;;5000486;28;20054;-64
2023/12/13 03:24:23;;;;;;;13.68;2.97;;;7.40;99.90;;;;;;4997714;28;20137;-67
2023/12/13 03:26:49;;;;;;;10.27;3.45;;;7.30;99.90;;;;;;4997882;28;20026;-64
2023/12/13 03:29:16;;;;;;;9.85;3.00;;;7.30;99.90;;;;;;4997038;28;20027;-64
2023/12/13 03:31:41;;;;;;;16.50;3.35;;;7.30;99.90;;;;;;5001124;28;20068;-63
2023/12/13 03:34:07;;;;;;;9.23;2.80;;;7.30;99.90;;;;;;4979673;28;20066;-63
2023/12/13 03:36:32;;;;;;;11.98;3.03;;;7.40;99.90;;;;;;5001085;28;20026;-63
2023/12/13 03:38:58;;;;;;;14.43;3.65;;;7.30;99.90;;;;;;4997222;28;20490;-63
2023/12/13 03:41:23;;;;;;;13.20;3.33;;;7.30;99.90;;;;;;5001342;28;20125;-64
2023/12/13 03:43:49;;;;;;;9.40;2.72;;;7.20;99.90;;;;;;4995597;28;20026;-65
2023/12/13 03:46:15;;;;;;;11.43;2.80;;;7.20;99.90;;;;;;4998746;28;20485;-64
2023/12/13 03:48:40;;;;;;;8.57;2.63;;;7.20;99.90;;;;;;4981348;28;20022;-64
2023/12/13 03:51:06;;;;;;;10.18;2.83;;;7.30;99.90;;;;;;4997033;28;20023;-64
2023/12/13 03:53:32;;;;;;;10.00;2.53;;;7.30;99.90;;;;;;4997293;28;20102;-64
2023/12/13 03:55:59;;;;;;;7.78;2.38;;;7.30;99.90;;;;;;5000318;28;20026;-64
2023/12/13 03:58:24;;;;;;;9.20;2.50;;;7.30;99.90;;;;;;4983502;28;20122;-64
2023/12/13 04:00:50;;;;;;;8.90;2.80;;;7.20;99.90;;;;;;5000871;28;20113;-64
2023/12/13 04:03:15;;;;;;;12.10;2.58;;;7.30;99.90;;;;;;4996984;28;20085;-64
2023/12/13 04:05:41;;;;;;;8.48;2.35;;;7.40;99.90;;;;;;5001042;28;20057;-64
2023/12/13 04:08:08;;;;;;;11.25;2.67;;;7.30;99.90;;;;;;4996862;28;20041;-64
2023/12/13 04:10:34;;;;;;;9.60;2.88;;;7.30;99.90;;;;;;5000083;28;20030;-64
2023/12/13 04:13:00;;;;;;;14.52;2.90;;;7.30;99.90;;;;;;4995258;28;20050;-64
2023/12/13 04:15:26;;;;;;;10.80;2.60;;;7.30;99.90;;;;;;5000637;28;20516;-64
2023/12/13 04:17:53;;;;;;;9.45;2.75;;;7.30;99.90;;;;;;5000923;28;20026;-64
2023/12/13 04:20:19;;;;;;;9.82;3.00;;;7.40;99.90;;;;;;4976616;28;20065;-64
2023/12/13 04:22:45;;;;;;;9.35;2.47;;;7.40;99.90;;;;;;4980542;28;20035;-64
2023/12/13 04:25:11;;;;;;;11.52;3.35;;;7.40;99.90;;;;;;4975978;28;20459;-64
2023/12/13 04:27:36;;;;;;;7.50;2.22;;;7.50;99.90;;;;;;4976601;28;20023;-64
2023/12/13 04:30:02;;;;;;;11.85;3.53;;;7.40;99.90;;;;;;4977703;28;20393;-64
2023/12/13 04:32:28;;;;;;;8.55;2.38;;;7.40;99.90;;;;;;4976677;28;20022;-64
2023/12/13 04:34:54;;;;;;;8.95;2.60;;;7.40;99.90;;;;;;4980559;28;20022;-64
2023/12/13 04:37:20;;;;;;;10.57;3.10;;;7.40;99.90;;;;;;4977568;28;20035;-64
2023/12/13 04:39:46;;;;;;;12.82;2.75;;;7.40;99.90;;;;;;4980186;28;20405;-64
2023/12/13 04:42:11;;;;;;;10.05;2.80;;;7.40;99.90;;;;;;4977931;28;20348;-64
2023/12/13 04:44:37;;;;;;;10.77;3.08;;;7.40;99.90;;;;;;4977974;28;20474;-64
2023/12/13 04:47:03;;;;;;;8.48;2.60;;;7.50;99.90;;;;;;4981995;28;20026;-64
2023/12/13 04:49:29;;;;;;;10.75;2.75;;;7.50;99.90;;;;;;4982612;28;20035;-64
2023/12/13 04:51:54;;;;;;;14.18;3.22;;;7.50;99.90;;;;;;4983329;28;20401;-64
2023/12/13 04:54:20;;;;;;;7.72;2.80;;;7.50;99.90;;;;;;4981886;28;20589;-64
2023/12/13 04:56:46;;;;;;;12.10;3.20;;;7.60;99.90;;;;;;4985444;28;20034;-64
2023/12/13 04:59:11;;;;;;;11.10;3.20;;;7.60;99.90;;;;;;4980243;28;20030;-64
2023/12/13 05:01:37;;;;;;;10.05;2.63;;;7.60;99.90;;;;;;4982342;28;20154;-64
2023/12/13 05:04:03;;;;;;;9.70;3.03;;;7.60;99.90;;;;;;4981542;28;20062;-64
2023/12/13 05:06:28;;;;;;;13.27;2.88;;;7.60;99.90;;;;;;4982285;28;20054;-64
2023/12/13 05:08:54;;;;;;;14.02;3.03;;;7.60;99.90;;;;;;4982827;28;20097;-64
2023/12/13 05:11:20;;;;;;;7.65;3.10;;;7.60;99.90;;;;;;4981690;28;20035;-64
2023/12/13 05:13:45;;;;;;;10.80;2.97;;;7.60;99.90;;;;;;4996101;28;20458;-64
2023/12/13 05:16:11;;;;;;;10.05;3.20;;;7.60;99.90;;;;;;4981701;28;20039;-65
2023/12/13 05:18:37;;;;;;;12.23;3.83;;;7.60;99.90;;;;;;4984122;28;20078;-64
2023/12/13 05:21:03;;;;;;;15.70;2.90;;;7.60;99.90;;;;;;4991157;28;20493;-64
2023/12/13 05:23:28;;;;;;;12.90;2.80;;;7.60;99.90;;;;;;5001624;28;20030;-64
2023/12/13 05:25:57;;;;;;;11.65;3.13;;;7.60;99.90;;;;;;5002176;28;20041;-64
2023/12/13 05:28:23;;;;;;;14.73;3.78;;;7.60;99.90;;;;;;4999507;28;20030;-64
2023/12/13 05:30:48;;;;;;;14.02;2.85;;;7.60;99.90;;;;;;4985285;28;20354;-64
2023/12/13 05:33:14;;;;;;;9.75;2.75;;;7.60;99.90;;;;;;5001376;28;20110;-64
2023/12/13 05:35:39;;;;;;;9.82;2.47;;;7.70;99.90;;;;;;5000499;28;20030;-64
2023/12/13 05:38:05;;;;;;;10.60;3.00;;;7.60;99.90;;;;;;5000256;28;20018;-64
2023/12/13 05:40:31;;;;;;;11.57;2.70;;;7.60;99.90;;;;;;5000251;28;20337;-64
2023/12/13 05:42:57;;;;;;;11.82;3.50;;;7.60;99.90;;;;;;4995283;28;20042;-64
2023/12/13 05:45:23;;;;;;;13.40;3.33;;;7.60;99.90;;;;;;4987346;28;20088;-64
2023/12/13 05:47:49;;;;;;;15.30;3.47;;;7.60;99.90;;;;;;4981851;28;20026;-64
2023/12/13 05:50:15;;;;;;;10.07;3.08;;;7.60;99.90;;;;;;4998194;28;20476;-64
2023/12/13 05:52:47;;;;;;;10.93;3.53;;;7.60;99.90;;;;;;5000301;28;20018;-64
2023/12/13 05:55:12;;;;;;;11.32;3.30;;;7.60;99.90;;;;;;4993627;28;20019;-65
2023/12/13 05:57:38;;;;;;;10.93;3.22;;;7.60;99.90;;;;;;4990167;28;20022;-65
2023/12/13 06:00:07;;;;;;;9.75;3.42;;;7.60;99.90;;;;;;4992024;28;20330;-65
2023/12/13 06:02:36;;;;;;;11.40;3.22;;;7.60;99.90;;;;;;4994234;28;20110;-65
2023/12/13 06:05:03;;;;;;;14.10;4.28;;;7.60;99.90;;;;;;4994564;28;20026;-65
2023/12/13 06:07:32;;;;;;;11.07;3.95;;;7.60;99.90;;;;;;4982204;28;20018;-65
2023/12/13 06:09:57;;;;;;;14.23;3.58;;;7.60;99.90;;;;;;4980064;28;20022;-65
2023/12/13 06:12:25;;;;;;;11.88;3.42;;;7.60;99.90;;;;;;4983065;28;20484;-65
2023/12/13 06:14:51;;;;;;;11.88;3.50;;;7.60;99.90;;;;;;4993859;28;20026;-65
2023/12/13 06:17:16;;;;;;;11.13;3.55;;;7.50;99.90;;;;;;4978105;28;20441;-65
2023/12/13 06:19:42;;;;;;;12.05;3.05;;;7.50;99.90;;;;;;4999042;28;20024;-65
2023/12/13 06:22:09;;;;;;;16.80;3.75;;;7.50;99.90;;;;;;4993113;28;20070;-64
2023/12/13 06:24:34;;;;;;;11.02;3.42;;;7.50;99.90;;;;;;4995217;28;20030;-64
2023/12/13 06:27:00;;;;;;;15.75;3.00;;;7.50;99.90;;;;;;4998709;28;20114;-64
2023/12/13 06:29:25;;;;;;;11.40;3.05;;;7.60;99.90;;;;;;4998423;28;20030;-64
2023/12/13 06:31:51;;;;;;;13.02;4.05;;;7.60;99.90;;;;;;4998404;28;20030;-65
2023/12/13 06:34:17;;;;;;;10.10;2.97;;;7.50;99.90;;;;;;5000574;28;20065;-64
2023/12/13 06:36:42;;;;;;;13.68;3.72;;;7.50;99.90;;;;;;4997988;28;20037;-64
2023/12/13 06:39:11;;;;;;;14.68;3.40;;;7.50;99.90;;;;;;4982051;28;20026;-64
2023/12/13 06:41:39;;;;;;;11.57;3.20;;;7.50;99.90;;;;;;4990018;28;20044;-64
2023/12/13 06:44:06;;;;;;;11.77;3.85;;;7.50;99.90;;;;;;4991896;28;20026;-64
2023/12/13 06:46:31;;;;;;;15.23;3.42;;;7.60;99.90;;;;;;4996483;28;20026;-64
2023/12/13 06:48:57;;;;;;;12.93;3.17;;;7.50;99.90;;;;;;4995438;28;20654;-64
2023/12/13 06:51:23;;;;;;;14.90;3.85;;;7.50;99.90;;;;;;4991746;28;20058;-63
2023/12/13 06:53:48;;;;;;;11.52;3.40;;;7.50;99.90;;;;;;4998579;28;20028;-64
2023/12/13 06:56:14;;;;;;;12.20;3.28;;;7.50;99.90;;;;;;4989127;28;20022;-65
2023/12/13 06:58:40;;;;;;;10.25;3.05;;;7.50;99.90;;;;;;4994479;28;20022;-65
2023/12/13 07:01:05;;;;;;;18.95;3.28;;;7.50;99.90;;;;;;4991801;28;20553;-65
2023/12/13 07:03:31;;;;;;;14.30;3.67;;;7.50;99.90;;;;;;4988870;28;20038;-64
2023/12/13 07:05:57;;;;;;;12.25;3.33;;;7.60;99.90;;;;;;4993209;28;20204;-64
2023/12/13 07:08:22;;;;;;;14.65;3.20;;;7.60;99.90;;;;;;4996250;28;20033;-64
2023/12/13 07:10:48;;;;;;;12.40;3.50;;;7.60;99.90;;;;;;4993191;28;20033;-64
2023/12/13 07:13:14;;;;;;;10.68;3.40;;;7.60;99.90;;;;;;4975586;28;20597;-63
2023/12/13 07:15:39;;;;;;;10.38;3.80;;;7.60;99.90;;;;;;4993522;28;20034;-63
2023/12/13 07:18:05;;;;;;;13.35;3.65;;;7.60;99.90;;;;;;4998312;28;20474;-63
2023/12/13 07:20:34;;;;;;;13.93;3.53;;;7.60;99.90;;;;;;4994042;28;20129;-63
2023/12/13 07:22:59;;;;;;;11.48;3.25;;;7.60;99.90;;;;;;4995450;28;20120;-63
2023/12/13 07:25:25;;;;;;;14.85;3.67;;;7.60;99.90;;;;;;4995878;28;20034;-63
2023/12/13 07:27:51;;;;;;;11.15;3.10;;;7.60;99.90;;;;;;4997510;28;20066;-63
2023/12/13 07:30:16;;;;;;;13.38;3.42;;;7.60;99.90;;;;;;4982445;28;20343;-63
2023/12/13 07:32:44;;;;;;;11.48;3.10;;;7.60;99.90;;;;;;4990153;28;20037;-63
2023/12/13 07:35:10;;;;;;;15.73;3.42;;;7.60;99.90;;;;;;4998725;28;20022;-63
2023/12/13 07:37:36;;;;;;;14.85;3.17;;;7.60;99.90;;;;;;4997534;28;20108;-63
2023/12/13 07:40:03;;;;;;;11.40;3.22;;;7.60;99.90;;;;;;4982849;28;20025;-63
2023/12/13 07:42:31;;;;;;;14.60;3.78;;;7.70;99.90;;;;;;4995955;28;20022;-63
2023/12/13 07:44:57;;;;;;;12.95;2.90;;;7.70;99.90;;;;;;4995267;28;20025;-63
2023/12/13 07:47:23;;;;;;;10.85;3.15;;;7.60;99.90;;;;;;4998624;28;20454;-63
2023/12/13 07:49:48;;;;;;;13.07;3.40;;;7.70;99.90;;;;;;4978382;28;20098;-63
2023/12/13 07:52:14;;;;;;;13.43;3.28;;;7.70;99.90;;;;;;4996315;28;20034;-62
2023/12/13 07:54:40;;;;;;;12.30;3.45;;;7.60;99.90;;;;;;4992953;28;20761;-62
2023/12/13 07:57:05;;;;;;;12.77;3.67;;;7.40;99.90;;;;;;4996591;28;20027;-62
2023/12/13 07:59:31;;;;;;;13.18;3.60;;;7.70;99.90;;;;;;4997293;28;20106;-62
2023/12/13 08:01:56;;;;;;;18.05;4.07;;;7.70;99.90;;;;;;4995089;28;20549;-62
2023/12/13 08:04:22;;;;;;;13.63;3.53;;;7.70;99.90;;;;;;4998720;28;20030;-64
2023/12/13 08:06:47;;;;;;;12.95;3.30;;;7.70;99.90;;;;;;4995514;28;20425;-64
2023/12/13 08:09:18;;;;;;;10.88;2.90;;;7.70;99.90;;;;;;4979414;28;20041;-64
2023/12/13 08:11:44;;;;;;;10.60;3.35;;;7.60;99.90;;;;;;4995669;28;20136;-64
2023/12/13 08:14:10;;;;;;;10.38;3.40;;;7.70;99.90;;;;;;4994231;28;20019;-64
2023/12/13 08:16:35;;;;;;;12.48;3.50;;;7.70;99.90;;;;;;4985867;28;20121;-63
2023/12/13 08:19:03;;;;;;;14.35;4.30;;;7.80;99.90;;;;;;5005618;28;20049;-62
2023/12/13 08:21:30;;;;;;;14.98;3.63;;;7.70;99.90;;;;;;4992379;28;20039;-64
2023/12/13 08:23:55;;;;;;;13.40;3.78;;;7.70;99.90;;;;;;4986281;28;20118;-63
2023/12/13 08:26:21;;;;;;;12.50;4.03;;;7.60;99.90;;;;;;4984587;28;20533;-63
2023/12/13 08:28:47;;;;;;;18.80;3.72;;;7.60;99.90;;;;;;4978507;28;20117;-63
2023/12/13 08:31:12;;;;;;;12.63;4.40;;;7.50;99.90;;;;;;4984127;28;20061;-63
2023/12/13 08:33:43;;;;;;;16.55;4.00;;;7.50;99.90;;;;;;4984997;28;20054;-63
2023/12/13 08:36:15;;;;;;;8.70;3.00;;;7.50;99.90;;;;;;4993884;28;20465;-63
2023/12/13 08:38:41;;;;;;;13.45;3.60;;;7.50;99.90;;;;;;4983834;28;20023;-64
2023/12/13 08:41:07;;;;;;;13.00;3.47;;;7.60;99.90;;;;;;4979131;28;20085;-64
2023/12/13 08:43:33;;;;;;;11.05;3.55;;;7.60;99.90;;;;;;4984845;28;20417;-64
2023/12/13 08:45:59;;;;;;;15.43;3.67;;;7.60;99.90;;;;;;4987989;28;20034;-62
2023/12/13 08:48:25;;;;;;;12.38;3.58;;;7.90;99.90;;;;;;4986745;28;20038;-64
2023/12/13 08:50:51;;;;;;;14.40;3.53;;;7.90;99.90;;;;;;4984043;28;20022;-64
2023/12/13 08:53:17;;;;;;;15.75;3.92;;;8.00;99.90;;;;;;4981237;28;20110;-64
2023/12/13 08:55:43;;;;;;;17.42;3.70;;;8.00;99.90;;;;;;4981825;28;20121;-64
2023/12/13 08:58:09;;;;;;;20.30;3.85;;;8.00;99.90;;;;;;4985585;28;20034;-62
2023/12/13 09:00:35;;;;;;;15.52;3.50;;;8.00;99.90;;;;;;4987608;28;20034;-62
2023/12/13 09:03:01;;;;;;;11.23;3.50;;;8.00;99.90;;;;;;4980665;28;20031;-64
2023/12/13 09:05:27;;;;;;;14.10;3.92;;;8.00;99.90;;;;;;4980364;28;20481;-64
2023/12/13 09:07:53;;;;;;;10.18;3.17;;;7.90;99.90;;;;;;4987003;28;20062;-63
2023/12/13 09:10:20;;;;;;;17.88;4.30;;;7.90;99.90;;;;;;4980304;28;20031;-64
2023/12/13 09:12:45;;;;;;;13.13;3.63;;;8.00;99.90;;;;;;4983142;28;20457;-64
2023/12/13 09:15:11;;;;;;;13.05;3.90;;;8.00;99.90;;;;;;4986755;28;20113;-64
2023/12/13 09:17:37;;;;;;;10.95;3.25;;;8.00;99.90;;;;;;4986488;28;20054;-64
2023/12/13 09:20:03;;;;;;;16.00;3.88;;;8.00;99.90;;;;;;4980801;28;20022;-65
2023/12/13 09:22:30;;;;;;;13.60;3.50;;;8.00;99.90;;;;;;5004049;28;20025;-65
2023/12/13 09:24:55;;;;;;;12.90;3.55;;;7.90;99.90;;;;;;5004455;28;20037;-65
2023/12/13 09:27:23;;;;;;;14.15;3.85;;;8.00;99.90;;;;;;4999518;28;20026;-65
2023/12/13 09:29:48;;;;;;;14.55;4.13;;;7.90;99.90;;;;;;4987776;28;20018;-65
2023/12/13 09:32:14;;;;;;;13.48;3.20;;;8.10;99.90;;;;;;5001371;28;20282;-64
2023/12/13 09:34:39;;;;;;;10.07;3.03;;;8.20;99.90;;;;;;5010557;28;20038;-65
2023/12/13 09:37:06;;;;;;;15.30;3.10;;;8.30;99.90;;;;;;5011145;28;20511;-63
2023/12/13 09:39:31;;;;;;;13.27;3.53;;;8.40;99.90;;;;;;5007559;28;20026;-65
2023/12/13 09:42:01;;;;;;;14.35;3.95;;;8.40;99.90;;;;;;5009395;28;20042;-65
2023/12/13 09:44:27;;;;;;;15.48;4.45;;;8.40;99.90;;;;;;5006363;28;20053;-63
2023/12/13 09:46:53;;;;;;;14.48;4.53;;;8.50;99.90;;;;;;5005542;28;20515;-63
2023/12/13 09:49:23;;;;;;;18.85;4.53;;;8.60;99.90;;;;;;5005170;28;20049;-63
2023/12/13 09:51:52;;;;;;;12.50;3.65;;;8.70;99.90;;;;;;4984912;28;20022;-63
2023/12/13 09:54:19;;;;;;;16.02;4.43;;;8.70;99.90;;;;;;5003611;28;20054;-63
2023/12/13 09:56:44;;;;;;;12.68;3.30;;;8.90;99.90;;;;;;5008509;28;20030;-63
2023/12/13 09:59:10;;;;;;;11.70;2.88;;;8.90;99.90;;;;;;5006193;28;20033;-63
2023/12/13 10:01:36;;;;;;;16.50;3.17;;;8.90;99.90;;;;;;5004234;28;20378;-63
2023/12/13 10:04:03;;;;;;;12.18;3.05;;;9.00;99.90;;;;;;5005630;28;20052;-63
2023/12/13 10:06:29;;;;;;;10.80;3.03;;;9.00;99.90;;;;;;5003783;28;20103;-63
2023/12/13 10:08:57;;;;;;;10.40;3.20;;;9.00;99.90;;;;;;5008307;28;20030;-63
2023/12/13 10:11:23;;;;;;;12.05;2.50;;;9.10;99.90;;;;;;4991366;28;20042;-63
2023/12/13 10:13:49;;;;;;;13.20;2.63;;;9.10;99.90;;;;;;5002989;28;20111;-63
2023/12/13 10:16:15;;;;;;;9.30;2.92;;;9.10;99.90;;;;;;5004340;28;20034;-63
2023/12/13 10:18:41;;;;;;;13.20;2.60;;;9.10;99.90;;;;;;5005982;28;20045;-64
2023/12/13 10:21:10;;;;;;;8.15;2.55;;;9.10;99.90;;;;;;5003467;28;20069;-65
2023/12/13 10:23:36;;;;;;;9.93;3.00;;;9.10;99.90;;;;;;5001227;28;20031;-65
2023/12/13 10:26:02;;;;;;;13.20;2.72;;;9.20;99.90;;;;;;4999291;28;20405;-63
2023/12/13 10:28:28;;;;;;;9.23;2.38;;;9.20;99.90;;;;;;4998151;28;20053;-63
2023/12/13 10:30:54;;;;;;;8.32;2.40;;;9.20;99.90;;;;;;5000160;28;20069;-65
2023/12/13 10:33:20;;;;;;;9.90;2.70;;;9.20;99.90;;;;;;4997128;28;20049;-67
2023/12/13 10:35:48;;;;;;;8.38;2.42;;;9.30;99.90;;;;;;5005268;28;20432;-65
2023/12/13 10:38:17;;;;;;;7.97;2.30;;;9.40;99.90;;;;;;5005579;28;20127;-65
2023/12/13 10:40:44;;;;;;;11.65;2.40;;;9.50;99.90;;;;;;4983604;28;20091;-65
2023/12/13 10:43:11;;;;;;;11.85;2.33;;;9.50;99.90;;;;;;5001319;28;20030;-62
2023/12/13 10:45:49;;;;;;;6.97;2.00;;;9.50;99.90;;;;;;4997984;28;20028;-65
2023/12/13 10:48:17;;;;;;;7.38;2.10;;;9.60;99.90;;;;;;4986796;28;20038;-64
2023/12/13 10:50:48;;;;;;;10.43;2.35;;;9.50;99.90;;;;;;4997584;28;20358;-65
2023/12/13 10:53:17;;;;;;;10.98;2.60;;;9.40;99.90;;;;;;4987788;28;20422;-65
2023/12/13 10:55:44;;;;;;;6.90;1.80;;;9.50;99.90;;;;;;5001919;28;20032;-65
2023/12/13 10:58:11;;;;;;;13.63;3.30;;;9.40;99.90;;;;;;4985664;28;20062;-65
2023/12/13 11:00:38;;;;;;;8.80;2.28;;;9.50;99.90;;;;;;5003978;28;20033;-65
2023/12/13 11:03:17;;;;;;;9.13;1.88;;;9.50;99.90;;;;;;5000903;28;20398;-65
2023/12/13 11:05:43;;;;;;;13.50;2.38;;;9.60;99.90;;;;;;5002296;28;20041;-65
2023/12/13 11:08:19;;;;;;;13.73;2.55;;;9.60;99.90;;;;;;4986518;28;20034;-65
2023/12/13 11:11:04;;;;;;;9.02;2.00;;;9.70;99.90;;;;;;5004795;28;20045;-65
2023/12/13 11:13:30;;;;;;;8.52;2.38;;;9.70;99.90;;;;;;4983447;28;20028;-65
2023/12/13 11:15:57;;;;;;;10.48;2.50;;;9.90;99.90;;;;;;5004214;28;20026;-65
2023/12/13 11:18:24;;;;;;;8.10;2.65;;;10.20;99.90;;;;;;5001944;28;20034;-65
2023/12/13 11:20:58;;;;;;;10.45;2.13;;;10.40;99.90;;;;;;5000720;28;20057;-64
2023/12/13 11:23:25;;;;;;;8.38;2.13;;;10.50;99.90;;;;;;4998615;28;20037;-66
2023/12/13 11:25:51;;;;;;;6.60;1.95;;;11.00;99.90;;;;;;5001846;28;20048;-65
2023/12/13 11:28:27;;;;;;;8.55;2.33;;;11.80;99.90;;;;;;4997860;28;20104;-65
2023/12/13 11:30:55;;;;;;;7.47;1.80;;;12.50;99.90;;;;;;5000850;28;20063;-65
2023/12/13 11:33:22;;;;;;;9.55;2.15;;;12.60;99.90;;;;;;4997674;28;20069;-65
2023/12/13 11:35:50;;;;;;;7.85;1.92;;;12.20;99.90;;;;;;5000304;28;20029;-62
2023/12/13 11:38:16;;;;;;;11.10;2.33;;;11.50;99.90;;;;;;4997036;28;20087;-64
2023/12/13 11:40:44;;;;;;;9.68;2.42;;;11.00;99.90;;;;;;5000795;28;20116;-65
2023/12/13 11:43:11;;;;;;;9.02;2.20;;;10.70;99.90;;;;;;5001524;28;20037;-65
2023/12/13 11:45:46;;;;;;;8.40;2.33;;;10.70;99.90;;;;;;5001147;28;20053;-65
2023/12/13 11:48:13;;;;;;;9.93;2.25;;;10.90;99.90;;;;;;5001651;28;20034;-65
2023/12/13 11:50:44;;;;;;;7.45;2.05;;;11.00;99.90;;;;;;4983176;28;20037;-65
2023/12/13 11:53:12;;;;;;;9.15;1.98;;;11.10;99.90;;;;;;5000826;28;20034;-65
2023/12/13 11:55:38;;;;;;;7.68;2.00;;;11.10;99.90;;;;;;5002535;28;20034;-65
2023/12/13 11:58:03;;;;;;;7.97;2.35;;;11.20;99.90;;;;;;5001470;28;20075;-65
2023/12/13 12:00:29;;;;;;;8.90;2.08;;;11.10;99.90;;;;;;5000473;28;20780;-65
2023/12/13 12:02:55;;;;;;;7.63;2.33;;;11.00;99.90;;;;;;4999839;28;20030;-65
2023/12/13 12:05:27;;;;;;;7.63;2.30;;;11.00;99.90;;;;;;5004009;28;20037;-65
2023/12/13 12:08:01;;;;;;;5.40;1.75;;;11.00;99.90;;;;;;4999700;28;20025;-65
2023/12/13 12:10:29;;;;;;;9.93;2.50;;;10.80;99.90;;;;;;4994732;28;20034;-65
2023/12/13 12:12:57;;;;;;;9.13;2.10;;;10.60;99.90;;;;;;4996043;28;20034;-65
2023/12/13 12:15:22;;;;;;;7.63;2.28;;;10.60;99.90;;;;;;5003456;28;20042;-64
2023/12/13 12:17:48;;;;;;;9.85;2.70;;;10.50;99.90;;;;;;5001185;28;20030;-65
2023/12/13 12:20:15;;;;;;;13.10;2.70;;;10.60;99.90;;;;;;4995292;28;20438;-65
2023/12/13 12:22:41;;;;;;;10.68;2.58;;;10.70;99.90;;;;;;4996359;28;20026;-65
2023/12/13 12:25:07;;;;;;;11.73;2.72;;;10.80;99.90;;;;;;5003168;28;20021;-65
2023/12/13 12:27:32;;;;;;;7.38;2.45;;;10.70;99.90;;;;;;4998014;28;20474;-65
2023/12/13 12:29:58;;;;;;;9.55;2.40;;;10.50;99.90;;;;;;4999805;28;20063;-66
2023/12/13 12:32:24;;;;;;;9.20;2.50;;;10.40;99.90;;;;;;4998865;28;20138;-65
2023/12/13 12:34:49;;;;;;;7.28;2.38;;;10.50;99.90;;;;;;4999619;28;20033;-65
2023/12/13 12:37:16;;;;;;;8.25;2.33;;;10.40;99.90;;;;;;4997712;28;20482;-64
2023/12/13 12:39:41;;;;;;;6.15;1.90;;;10.40;99.90;;;;;;5001593;28;20038;-65
2023/12/13 12:42:07;;;;;;;12.13;3.55;;;10.50;99.90;;;;;;4997679;28;20059;-65
2023/12/13 12:44:32;;;;;;;6.38;2.20;;;11.20;99.90;;;;;;4996375;28;20026;-65
2023/12/13 12:46:58;;;;;;;9.43;2.00;;;12.40;99.90;;;;;;4986209;28;20030;-65